sensor_id;sensor_type;location;lat;lon;timestamp;pressure;altitude;pressure_sealevel;temperature
20490;BMP280;10403;54.092;12.122;2024-01-11T00:00:41;103410.94;;;2.43
20490;BMP280;10403;54.092;12.122;2024-01-11T00:03:08;103402.28;;;2.42
20490;BMP280;10403;54.092;12.122;2024-01-11T00:05:36;103403.97;;;2.42
20490;BMP280;10403;54.092;12.122;2024-01-11T00:08:04;103404.97;;;2.44
20490;BMP280;10403;54.092;12.122;2024-01-11T00:10:32;103399.81;;;2.44
20490;BMP280;10403;54.092;12.122;2024-01-11T00:12:59;103398.91;;;2.43
20490;BMP280;10403;54.092;12.122;2024-01-11T00:15:27;103393.75;;;2.43
20490;BMP280;10403;54.092;12.122;2024-01-11T00:17:54;103391.16;;;2.43
20490;BMP280;10403;54.092;12.122;2024-01-11T00:20:22;103386.59;;;2.39
20490;BMP280;10403;54.092;12.122;2024-01-11T00:22:49;103393.75;;;2.43
20490;BMP280;10403;54.092;12.122;2024-01-11T00:25:16;103379.63;;;2.38
20490;BMP280;10403;54.092;12.122;2024-01-11T00:27:43;103378.94;;;2.41
20490;BMP280;10403;54.092;12.122;2024-01-11T00:30:10;103358.16;;;2.39
20490;BMP280;10403;54.092;12.122;2024-01-11T00:32:37;103358.16;;;2.39
20490;BMP280;10403;54.092;12.122;2024-01-11T00:35:05;103339.00;;;2.36
20490;BMP280;10403;54.092;12.122;2024-01-11T00:37:33;103343.47;;;2.38
20490;BMP280;10403;54.092;12.122;2024-01-11T00:40:00;103331.19;;;2.34
20490;BMP280;10403;54.092;12.122;2024-01-11T00:42:27;103344.34;;;2.39
20490;BMP280;10403;54.092;12.122;2024-01-11T00:44:54;103354.69;;;2.39
20490;BMP280;10403;54.092;12.122;2024-01-11T00:47:22;103341.56;;;2.36
20490;BMP280;10403;54.092;12.122;2024-01-11T00:49:49;103341.88;;;2.40
20490;BMP280;10403;54.092;12.122;2024-01-11T00:52:16;103340.88;;;2.38
20490;BMP280;10403;54.092;12.122;2024-01-11T00:54:43;103340.09;;;2.39
20490;BMP280;10403;54.092;12.122;2024-01-11T00:57:10;103325.00;;;2.32
20490;BMP280;10403;54.092;12.122;2024-01-11T00:59:39;103339.19;;;2.39
20490;BMP280;10403;54.092;12.122;2024-01-11T01:02:07;103331.19;;;2.34
20490;BMP280;10403;54.092;12.122;2024-01-11T01:04:38;103336.69;;;2.40
20490;BMP280;10403;54.092;12.122;2024-01-11T01:07:06;103340.19;;;2.41
20490;BMP280;10403;54.092;12.122;2024-01-11T01:09:33;103347.03;;;2.40
20490;BMP280;10403;54.092;12.122;2024-01-11T01:12:00;103337.41;;;2.38
20490;BMP280;10403;54.092;12.122;2024-01-11T01:14:27;103355.94;;;2.45
20490;BMP280;10403;54.092;12.122;2024-01-11T01:16:54;103325.44;;;2.25
20490;BMP280;10403;54.092;12.122;2024-01-11T01:19:21;103376.81;;;2.48
20490;BMP280;10403;54.092;12.122;2024-01-11T01:21:49;103362.53;;;2.40
20490;BMP280;10403;54.092;12.122;2024-01-11T01:24:16;103361.75;;;2.41
20490;BMP280;10403;54.092;12.122;2024-01-11T01:26:43;103374.13;;;2.47
20490;BMP280;10403;54.092;12.122;2024-01-11T01:29:10;103378.50;;;2.48
20490;BMP280;10403;54.092;12.122;2024-01-11T01:31:37;103370.75;;;2.48
20490;BMP280;10403;54.092;12.122;2024-01-11T01:34:07;103376.81;;;2.48
20490;BMP280;10403;54.092;12.122;2024-01-11T01:36:34;103370.84;;;2.49
20490;BMP280;10403;54.092;12.122;2024-01-11T01:39:01;103363.69;;;2.45
20490;BMP280;10403;54.092;12.122;2024-01-11T01:41:30;103383.66;;;2.48
20490;BMP280;10403;54.092;12.122;2024-01-11T01:43:57;103381.38;;;2.52
20490;BMP280;10403;54.092;12.122;2024-01-11T01:46:25;103377.00;;;2.51
20490;BMP280;10403;54.092;12.122;2024-01-11T01:48:55;103376.31;;;2.54
20490;BMP280;10403;54.092;12.122;2024-01-11T01:51:29;103373.44;;;2.49
20490;BMP280;10403;54.092;12.122;2024-01-11T01:53:57;103379.69;;;2.53
20490;BMP280;10403;54.092;12.122;2024-01-11T01:56:25;103372.75;;;2.52
20490;BMP280;10403;54.092;12.122;2024-01-11T01:58:53;103365.16;;;2.55
20490;BMP280;10403;54.092;12.122;2024-01-11T02:01:23;103345.69;;;2.47
20490;BMP280;10403;54.092;12.122;2024-01-11T02:03:53;103351.38;;;2.54
20490;BMP280;10403;54.092;12.122;2024-01-11T02:06:26;103348.47;;;2.50
20490;BMP280;10403;54.092;12.122;2024-01-11T02:08:56;103371.84;;;2.51
20490;BMP280;10403;54.092;12.122;2024-01-11T02:11:24;103353.19;;;2.42
20490;BMP280;10403;54.092;12.122;2024-01-11T02:13:52;103339.47;;;2.43
20490;BMP280;10403;54.092;12.122;2024-01-11T02:16:19;103336.91;;;2.43
20490;BMP280;10403;54.092;12.122;2024-01-11T02:18:47;103341.97;;;2.42
20490;BMP280;10403;54.092;12.122;2024-01-11T02:21:16;103329.16;;;2.43
20490;BMP280;10403;54.092;12.122;2024-01-11T02:24:15;103336.91;;;2.43
20490;BMP280;10403;54.092;12.122;2024-01-11T02:27:03;103337.50;;;2.39
20490;BMP280;10403;54.092;12.122;2024-01-11T02:29:31;103350.41;;;2.39
20490;BMP280;10403;54.092;12.122;2024-01-11T02:32:01;103365.03;;;2.39
20490;BMP280;10403;54.092;12.122;2024-01-11T02:34:30;103400.31;;;2.38
20490;BMP280;10403;54.092;12.122;2024-01-11T02:36:58;103395.03;;;2.37
20490;BMP280;10403;54.092;12.122;2024-01-11T02:39:25;103363.78;;;2.32
20490;BMP280;10403;54.092;12.122;2024-01-11T02:41:56;103345.38;;;2.28
20490;BMP280;10403;54.092;12.122;2024-01-11T02:44:24;103338.94;;;2.34
20490;BMP280;10403;54.092;12.122;2024-01-11T02:46:52;103337.31;;;2.36
20490;BMP280;10403;54.092;12.122;2024-01-11T02:49:19;103342.66;;;2.39
20490;BMP280;10403;54.092;12.122;2024-01-11T02:51:47;103335.81;;;2.40
20490;BMP280;10403;54.092;12.122;2024-01-11T02:54:14;103308.88;;;2.36
20490;BMP280;10403;54.092;12.122;2024-01-11T02:56:41;103324.69;;;2.41
20490;BMP280;10403;54.092;12.122;2024-01-11T02:59:09;103324.78;;;2.42
20490;BMP280;10403;54.092;12.122;2024-01-11T03:01:36;103319.59;;;2.42
20490;BMP280;10403;54.092;12.122;2024-01-11T03:04:04;103326.47;;;2.42
20490;BMP280;10403;54.092;12.122;2024-01-11T03:06:31;103312.66;;;2.41
20490;BMP280;10403;54.092;12.122;2024-01-11T03:08:58;103281.91;;;2.31
20490;BMP280;10403;54.092;12.122;2024-01-11T03:11:26;103298.94;;;2.42
20490;BMP280;10403;54.092;12.122;2024-01-11T03:13:53;103298.25;;;2.45
20490;BMP280;10403;54.092;12.122;2024-01-11T03:16:20;103297.41;;;2.46
20490;BMP280;10403;54.092;12.122;2024-01-11T03:18:48;103319.78;;;2.45
20490;BMP280;10403;54.092;12.122;2024-01-11T03:21:15;103311.22;;;2.46
20490;BMP280;10403;54.092;12.122;2024-01-11T03:23:42;103311.22;;;2.46
20490;BMP280;10403;54.092;12.122;2024-01-11T03:26:17;103317.28;;;2.47
20490;BMP280;10403;54.092;12.122;2024-01-11T03:28:45;103307.13;;;2.50
20490;BMP280;10403;54.092;12.122;2024-01-11T03:31:12;103297.69;;;2.50
20490;BMP280;10403;54.092;12.122;2024-01-11T03:33:39;103301.97;;;2.50
20490;BMP280;10403;54.092;12.122;2024-01-11T03:36:11;103327.00;;;2.51
20490;BMP280;10403;54.092;12.122;2024-01-11T03:38:38;103309.72;;;2.50
20490;BMP280;10403;54.092;12.122;2024-01-11T03:41:10;103305.34;;;2.49
20490;BMP280;10403;54.092;12.122;2024-01-11T03:43:37;103304.47;;;2.48
20490;BMP280;10403;54.092;12.122;2024-01-11T03:46:08;103297.50;;;2.47
20490;BMP280;10403;54.092;12.122;2024-01-11T03:48:35;103301.97;;;2.50
20490;BMP280;10403;54.092;12.122;2024-01-11T03:51:05;103297.69;;;2.50
20490;BMP280;10403;54.092;12.122;2024-01-11T03:53:36;103299.38;;;2.50
20490;BMP280;10403;54.092;12.122;2024-01-11T03:56:05;103308.84;;;2.49
20490;BMP280;10403;54.092;12.122;2024-01-11T03:58:32;103320.84;;;2.49
20490;BMP280;10403;54.092;12.122;2024-01-11T04:01:00;103293.78;;;2.42
20490;BMP280;10403;54.092;12.122;2024-01-11T04:03:27;103290.56;;;2.46
20490;BMP280;10403;54.092;12.122;2024-01-11T04:05:54;103287.06;;;2.46
20490;BMP280;10403;54.092;12.122;2024-01-11T04:08:22;103289.75;;;2.47
20490;BMP280;10403;54.092;12.122;2024-01-11T04:10:50;103276.84;;;2.47
20490;BMP280;10403;54.092;12.122;2024-01-11T04:13:17;103271.84;;;2.50
20490;BMP280;10403;54.092;12.122;2024-01-11T04:15:44;103279.59;;;2.50
20490;BMP280;10403;54.092;12.122;2024-01-11T04:18:11;103273.66;;;2.51
20490;BMP280;10403;54.092;12.122;2024-01-11T04:20:39;103284.88;;;2.52
20490;BMP280;10403;54.092;12.122;2024-01-11T04:23:06;103275.94;;;2.47
20490;BMP280;10403;54.092;12.122;2024-01-11T04:25:33;103278.00;;;2.52
20490;BMP280;10403;54.092;12.122;2024-01-11T04:28:02;103281.41;;;2.51
20490;BMP280;10403;54.092;12.122;2024-01-11T04:30:30;103290.03;;;2.52
20490;BMP280;10403;54.092;12.122;2024-01-11T04:32:58;103290.94;;;2.52
20490;BMP280;10403;54.092;12.122;2024-01-11T04:35:25;103288.34;;;2.52
20490;BMP280;10403;54.092;12.122;2024-01-11T04:37:53;103280.59;;;2.52
20490;BMP280;10403;54.092;12.122;2024-01-11T04:40:20;103277.03;;;2.50
20490;BMP280;10403;54.092;12.122;2024-01-11T04:42:47;103277.03;;;2.50
20490;BMP280;10403;54.092;12.122;2024-01-11T04:45:14;103287.25;;;2.49
20490;BMP280;10403;54.092;12.122;2024-01-11T04:47:41;103273.91;;;2.41
20490;BMP280;10403;54.092;12.122;2024-01-11T04:50:09;103284.78;;;2.50
20490;BMP280;10403;54.092;12.122;2024-01-11T04:52:36;103251.63;;;2.43
20490;BMP280;10403;54.092;12.122;2024-01-11T04:55:05;103270.97;;;2.50
20490;BMP280;10403;54.092;12.122;2024-01-11T04:57:32;103286.38;;;2.48
20490;BMP280;10403;54.092;12.122;2024-01-11T05:00:00;103290.75;;;2.49
20490;BMP280;10403;54.092;12.122;2024-01-11T05:02:30;103283.00;;;2.49
20490;BMP280;10403;54.092;12.122;2024-01-11T05:04:57;103287.34;;;2.50
20490;BMP280;10403;54.092;12.122;2024-01-11T05:07:27;103271.84;;;2.50
20490;BMP280;10403;54.092;12.122;2024-01-11T05:09:54;103273.66;;;2.51
20490;BMP280;10403;54.092;12.122;2024-01-11T05:12:21;103271.94;;;2.52
20490;BMP280;10403;54.092;12.122;2024-01-11T05:14:48;103277.22;;;2.53
20490;BMP280;10403;54.092;12.122;2024-01-11T05:17:16;103288.44;;;2.54
20490;BMP280;10403;54.092;12.122;2024-01-11T05:19:43;103291.09;;;2.55
20490;BMP280;10403;54.092;12.122;2024-01-11T05:22:10;103285.91;;;2.55
20490;BMP280;10403;54.092;12.122;2024-01-11T05:24:38;103281.66;;;2.56
20490;BMP280;10403;54.092;12.122;2024-01-11T05:27:05;103297.25;;;2.57
20490;BMP280;10403;54.092;12.122;2024-01-11T05:29:32;103298.16;;;2.58
20490;BMP280;10403;54.092;12.122;2024-01-11T05:31:59;103280.94;;;2.58
20490;BMP280;10403;54.092;12.122;2024-01-11T05:34:27;103275.78;;;2.58
20490;BMP280;10403;54.092;12.122;2024-01-11T05:36:54;103290.19;;;2.55
20490;BMP280;10403;54.092;12.122;2024-01-11T05:39:23;103276.56;;;2.57
20490;BMP280;10403;54.092;12.122;2024-01-11T05:41:50;103259.19;;;2.55
20490;BMP280;10403;54.092;12.122;2024-01-11T05:44:17;103260.97;;;2.56
20490;BMP280;10403;54.092;12.122;2024-01-11T05:46:44;103256.69;;;2.56
20490;BMP280;10403;54.092;12.122;2024-01-11T05:49:11;103260.09;;;2.55
20490;BMP280;10403;54.092;12.122;2024-01-11T05:51:39;103265.25;;;2.55
20490;BMP280;10403;54.092;12.122;2024-01-11T05:54:06;103267.03;;;2.56
20490;BMP280;10403;54.092;12.122;2024-01-11T05:56:33;103260.97;;;2.56
20490;BMP280;10403;54.092;12.122;2024-01-11T05:59:00;103252.88;;;2.50
20490;BMP280;10403;54.092;12.122;2024-01-11T06:01:28;103264.34;;;2.55
20490;BMP280;10403;54.092;12.122;2024-01-11T06:03:55;103246.34;;;2.56
20490;BMP280;10403;54.092;12.122;2024-01-11T06:06:22;103263.66;;;2.57
20490;BMP280;10403;54.092;12.122;2024-01-11T06:08:50;103281.84;;;2.59
20490;BMP280;10403;54.092;12.122;2024-01-11T06:11:17;103284.53;;;2.60
20490;BMP280;10403;54.092;12.122;2024-01-11T06:13:45;103265.25;;;2.55
20490;BMP280;10403;54.092;12.122;2024-01-11T06:16:12;103255.09;;;2.58
20490;BMP280;10403;54.092;12.122;2024-01-11T06:18:40;103270.81;;;2.62
20490;BMP280;10403;54.092;12.122;2024-01-11T06:21:07;103259.94;;;2.52
20490;BMP280;10403;54.092;12.122;2024-01-11T06:23:34;103267.50;;;2.64
20490;BMP280;10403;54.092;12.122;2024-01-11T06:26:02;103259.56;;;2.61
20490;BMP280;10403;54.092;12.122;2024-01-11T06:28:30;103256.44;;;2.67
20490;BMP280;10403;54.092;12.122;2024-01-11T06:31:01;103260.91;;;2.69
20490;BMP280;10403;54.092;12.122;2024-01-11T06:33:29;103261.78;;;2.70
20490;BMP280;10403;54.092;12.122;2024-01-11T06:35:56;103252.34;;;2.70
20490;BMP280;10403;54.092;12.122;2024-01-11T06:38:24;103261.00;;;2.71
20490;BMP280;10403;54.092;12.122;2024-01-11T06:40:51;103252.59;;;2.75
20490;BMP280;10403;54.092;12.122;2024-01-11T06:43:18;103251.78;;;2.76
20490;BMP280;10403;54.092;12.122;2024-01-11T06:45:45;103240.50;;;2.74
20490;BMP280;10403;54.092;12.122;2024-01-11T06:48:13;103261.53;;;2.80
20490;BMP280;10403;54.092;12.122;2024-01-11T06:50:40;103252.97;;;2.81
20490;BMP280;10403;54.092;12.122;2024-01-11T06:53:08;103248.69;;;2.81
20490;BMP280;10403;54.092;12.122;2024-01-11T06:55:35;103248.78;;;2.83
20490;BMP280;10403;54.092;12.122;2024-01-11T06:58:02;103244.41;;;2.82
20490;BMP280;10403;54.092;12.122;2024-01-11T07:00:30;103241.03;;;2.83
20490;BMP280;10403;54.092;12.122;2024-01-11T07:02:57;103223.53;;;2.79
20490;BMP280;10403;54.092;12.122;2024-01-11T07:05:24;103234.22;;;2.85
20490;BMP280;10403;54.092;12.122;2024-01-11T07:07:52;103255.81;;;2.85
20490;BMP280;10403;54.092;12.122;2024-01-11T07:10:19;103255.75;;;2.84
20490;BMP280;10403;54.092;12.122;2024-01-11T07:12:46;103266.25;;;2.87
20490;BMP280;10403;54.092;12.122;2024-01-11T07:15:15;103273.19;;;2.88
20490;BMP280;10403;54.092;12.122;2024-01-11T07:17:42;103255.09;;;2.88
20490;BMP280;10403;54.092;12.122;2024-01-11T07:20:10;103243.94;;;2.89
20490;BMP280;10403;54.092;12.122;2024-01-11T07:22:38;103251.00;;;2.91
20490;BMP280;10403;54.092;12.122;2024-01-11T07:25:08;103243.34;;;2.93
20490;BMP280;10403;54.092;12.122;2024-01-11T07:27:36;103255.44;;;2.94
20490;BMP280;10403;54.092;12.122;2024-01-11T07:30:03;103270.16;;;2.95
20490;BMP280;10403;54.092;12.122;2024-01-11T07:32:33;103284.06;;;2.97
20490;BMP280;10403;54.092;12.122;2024-01-11T07:35:00;103283.25;;;2.98
20490;BMP280;10403;54.092;12.122;2024-01-11T07:37:28;103260.00;;;2.98
20490;BMP280;10403;54.092;12.122;2024-01-11T07:39:55;103247.16;;;3.00
20490;BMP280;10403;54.092;12.122;2024-01-11T07:42:22;103237.69;;;3.00
20490;BMP280;10403;54.092;12.122;2024-01-11T07:44:50;103223.16;;;3.02
20490;BMP280;10403;54.092;12.122;2024-01-11T07:47:17;103218.88;;;3.03
20490;BMP280;10403;54.092;12.122;2024-01-11T07:49:44;103216.03;;;2.98
20490;BMP280;10403;54.092;12.122;2024-01-11T07:52:12;103223.31;;;3.05
20490;BMP280;10403;54.092;12.122;2024-01-11T07:54:39;103209.25;;;3.00
20490;BMP280;10403;54.092;12.122;2024-01-11T07:57:07;103226.69;;;3.04
20490;BMP280;10403;54.092;12.122;2024-01-11T07:59:34;103226.88;;;3.07
20490;BMP280;10403;54.092;12.122;2024-01-11T08:02:06;103204.59;;;3.09
20490;BMP280;10403;54.092;12.122;2024-01-11T08:04:34;103189.97;;;3.10
20490;BMP280;10403;54.092;12.122;2024-01-11T08:07:02;103195.22;;;3.11
20490;BMP280;10403;54.092;12.122;2024-01-11T08:09:29;103194.34;;;3.11
20490;BMP280;10403;54.092;12.122;2024-01-11T08:11:58;103217.72;;;3.12
20490;BMP280;10403;54.092;12.122;2024-01-11T08:14:25;103235.97;;;3.15
20490;BMP280;10403;54.092;12.122;2024-01-11T08:16:53;103232.47;;;3.15
20490;BMP280;10403;54.092;12.122;2024-01-11T08:19:21;103229.19;;;3.17
20490;BMP280;10403;54.092;12.122;2024-01-11T08:21:48;103219.41;;;3.12
20490;BMP280;10403;54.092;12.122;2024-01-11T08:24:15;103220.63;;;3.18
20490;BMP280;10403;54.092;12.122;2024-01-11T08:26:44;103241.41;;;3.20
20490;BMP280;10403;54.092;12.122;2024-01-11T08:29:13;103222.41;;;3.19
20490;BMP280;10403;54.092;12.122;2024-01-11T08:31:41;103225.78;;;3.18
20490;BMP280;10403;54.092;12.122;2024-01-11T08:34:11;103236.22;;;3.20
20490;BMP280;10403;54.092;12.122;2024-01-11T08:36:38;103230.16;;;3.19
20490;BMP280;10403;54.092;12.122;2024-01-11T08:39:06;103231.69;;;3.16
20490;BMP280;10403;54.092;12.122;2024-01-11T08:41:34;103224.91;;;3.18
20490;BMP280;10403;54.092;12.122;2024-01-11T08:44:05;103230.97;;;3.18
20490;BMP280;10403;54.092;12.122;2024-01-11T08:46:33;103236.13;;;3.18
20490;BMP280;10403;54.092;12.122;2024-01-11T08:49:02;103236.69;;;3.13
20490;BMP280;10403;54.092;12.122;2024-01-11T08:51:32;103245.59;;;3.18
20490;BMP280;10403;54.092;12.122;2024-01-11T08:54:00;103236.13;;;3.18
20490;BMP280;10403;54.092;12.122;2024-01-11T08:56:27;103247.28;;;3.17
20490;BMP280;10403;54.092;12.122;2024-01-11T08:58:55;103248.91;;;3.15
20490;BMP280;10403;54.092;12.122;2024-01-11T09:01:22;103252.22;;;3.13
20490;BMP280;10403;54.092;12.122;2024-01-11T09:03:52;103237.50;;;3.12
20490;BMP280;10403;54.092;12.122;2024-01-11T09:06:19;103233.28;;;3.14
20490;BMP280;10403;54.092;12.122;2024-01-11T09:08:47;103227.88;;;3.09
20490;BMP280;10403;54.092;12.122;2024-01-11T09:11:17;103221.09;;;3.11
20490;BMP280;10403;54.092;12.122;2024-01-11T09:13:44;103216.72;;;3.10
20490;BMP280;10403;54.092;12.122;2024-01-11T09:16:16;103226.34;;;3.13
20490;BMP280;10403;54.092;12.122;2024-01-11T09:18:44;103212.16;;;3.06
20490;BMP280;10403;54.092;12.122;2024-01-11T09:21:12;103206.19;;;3.07
20490;BMP280;10403;54.092;12.122;2024-01-11T09:23:39;103205.31;;;3.07
20490;BMP280;10403;54.092;12.122;2024-01-11T09:26:07;103204.25;;;3.03
20490;BMP280;10403;54.092;12.122;2024-01-11T09:28:34;103216.44;;;3.06
20490;BMP280;10403;54.092;12.122;2024-01-11T09:31:01;103207.78;;;3.05
20490;BMP280;10403;54.092;12.122;2024-01-11T09:33:29;103224.31;;;3.07
20490;BMP280;10403;54.092;12.122;2024-01-11T09:35:57;103226.88;;;3.07
20490;BMP280;10403;54.092;12.122;2024-01-11T09:38:24;103224.31;;;3.07
20490;BMP280;10403;54.092;12.122;2024-01-11T09:41:06;103214.44;;;3.00
20490;BMP280;10403;54.092;12.122;2024-01-11T09:43:45;103213.16;;;3.08
20490;BMP280;10403;54.092;12.122;2024-01-11T09:46:16;103222.94;;;3.14
20490;BMP280;10403;54.092;12.122;2024-01-11T09:48:44;103219.53;;;3.15
20490;BMP280;10403;54.092;12.122;2024-01-11T09:51:12;103223.22;;;3.18
20490;BMP280;10403;54.092;12.122;2024-01-11T09:53:42;103231.94;;;3.20
20490;BMP280;10403;54.092;12.122;2024-01-11T09:56:10;103232.09;;;3.23
20490;BMP280;10403;54.092;12.122;2024-01-11T09:58:46;103222.81;;;3.27
20490;BMP280;10403;54.092;12.122;2024-01-11T10:01:16;103222.03;;;3.28
20490;BMP280;10403;54.092;12.122;2024-01-11T10:03:44;103206.59;;;3.29
20490;BMP280;10403;54.092;12.122;2024-01-11T10:06:14;103207.00;;;3.37
20490;BMP280;10403;54.092;12.122;2024-01-11T10:08:44;103201.09;;;3.40
20490;BMP280;10403;54.092;12.122;2024-01-11T10:11:11;103191.75;;;3.42
20490;BMP280;10403;54.092;12.122;2024-01-11T10:13:38;103191.00;;;3.44
20490;BMP280;10403;54.092;12.122;2024-01-11T10:16:10;103184.28;;;3.48
20490;BMP280;10403;54.092;12.122;2024-01-11T10:18:41;103180.59;;;3.43
20490;BMP280;10403;54.092;12.122;2024-01-11T10:21:09;103200.94;;;3.53
20490;BMP280;10403;54.092;12.122;2024-01-11T10:23:37;103194.97;;;3.54
20490;BMP280;10403;54.092;12.122;2024-01-11T10:26:06;103188.00;;;3.53
20490;BMP280;10403;54.092;12.122;2024-01-11T10:28:35;103199.50;;;3.58
20490;BMP280;10403;54.092;12.122;2024-01-11T10:31:05;103207.09;;;3.55
20490;BMP280;10403;54.092;12.122;2024-01-11T10:33:34;103210.84;;;3.60
20490;BMP280;10403;54.092;12.122;2024-01-11T10:36:03;103217.81;;;3.61
20490;BMP280;10403;54.092;12.122;2024-01-11T10:38:35;103202.91;;;3.57
20490;BMP280;10403;54.092;12.122;2024-01-11T10:41:06;103150.38;;;3.27
20490;BMP280;10403;54.092;12.122;2024-01-11T10:43:38;103221.34;;;3.63
20490;BMP280;10403;54.092;12.122;2024-01-11T10:46:08;103223.78;;;3.60
20490;BMP280;10403;54.092;12.122;2024-01-11T10:48:38;103217.00;;;3.62
20490;BMP280;10403;54.092;12.122;2024-01-11T10:51:12;103202.41;;;3.64
20490;BMP280;10403;54.092;12.122;2024-01-11T10:53:47;103207.59;;;3.64
20490;BMP280;10403;54.092;12.122;2024-01-11T10:56:15;103199.19;;;3.68
20490;BMP280;10403;54.092;12.122;2024-01-11T10:58:45;103198.47;;;3.70
20490;BMP280;10403;54.092;12.122;2024-01-11T11:01:14;103205.34;;;3.70
20490;BMP280;10403;54.092;12.122;2024-01-11T11:03:44;103190.78;;;3.72
20490;BMP280;10403;54.092;12.122;2024-01-11T11:06:13;103166.34;;;3.67
20490;BMP280;10403;54.092;12.122;2024-01-11T11:08:42;103165.72;;;3.71
20490;BMP280;10403;54.092;12.122;2024-01-11T11:11:11;103158.97;;;3.75
20490;BMP280;10403;54.092;12.122;2024-01-11T11:13:39;103154.69;;;3.75
20490;BMP280;10403;54.092;12.122;2024-01-11T11:16:07;103159.53;;;3.85
20490;BMP280;10403;54.092;12.122;2024-01-11T11:18:35;103157.09;;;3.88
20490;BMP280;10403;54.092;12.122;2024-01-11T11:21:09;103170.88;;;3.87
20490;BMP280;10403;54.092;12.122;2024-01-11T11:23:40;103163.59;;;3.80
20490;BMP280;10403;54.092;12.122;2024-01-11T11:26:15;103159.78;;;3.73
20490;BMP280;10403;54.092;12.122;2024-01-11T11:28:49;103176.03;;;3.87
20490;BMP280;10403;54.092;12.122;2024-01-11T11:34:12;103158.34;;;3.79
20490;BMP280;10403;54.092;12.122;2024-01-11T11:36:41;103172.31;;;3.82
20490;BMP280;10403;54.092;12.122;2024-01-11T11:39:11;103194.81;;;3.83
20490;BMP280;10403;54.092;12.122;2024-01-11T11:41:41;103198.06;;;3.79
20490;BMP280;10403;54.092;12.122;2024-01-11T11:44:12;103194.66;;;3.80
20490;BMP280;10403;54.092;12.122;2024-01-11T11:46:43;103176.53;;;3.80
20490;BMP280;10403;54.092;12.122;2024-01-11T11:49:12;103184.31;;;3.80
20490;BMP280;10403;54.092;12.122;2024-01-11T11:51:43;103179.84;;;3.78
20490;BMP280;10403;54.092;12.122;2024-01-11T11:54:11;103175.31;;;3.73
20490;BMP280;10403;54.092;12.122;2024-01-11T11:56:42;103172.81;;;3.75
20490;BMP280;10403;54.092;12.122;2024-01-11T11:59:10;103175.41;;;3.75
20490;BMP280;10403;54.092;12.122;2024-01-11T12:01:38;103162.31;;;3.72
20490;BMP280;10403;54.092;12.122;2024-01-11T12:04:08;103150.81;;;3.67
20490;BMP280;10403;54.092;12.122;2024-01-11T12:06:35;103151.69;;;3.67
20490;BMP280;10403;54.092;12.122;2024-01-11T12:09:04;103159.72;;;3.72
20490;BMP280;10403;54.092;12.122;2024-01-11T12:11:31;103162.63;;;3.78
20490;BMP280;10403;54.092;12.122;2024-01-11T12:14:00;103150.09;;;3.69
20490;BMP280;10403;54.092;12.122;2024-01-11T12:16:27;103170.38;;;3.78
20490;BMP280;10403;54.092;12.122;2024-01-11T12:18:56;103154.84;;;3.78
20490;BMP280;10403;54.092;12.122;2024-01-11T12:21:24;103152.75;;;3.71
20490;BMP280;10403;54.092;12.122;2024-01-11T12:23:54;103155.75;;;3.79
20490;BMP280;10403;54.092;12.122;2024-01-11T12:26:22;103157.63;;;3.81
20490;BMP280;10403;54.092;12.122;2024-01-11T12:28:51;103153.38;;;3.83
20490;BMP280;10403;54.092;12.122;2024-01-11T12:31:26;103165.59;;;3.86
20490;BMP280;10403;54.092;12.122;2024-01-11T12:34:01;103158.72;;;3.86
20490;BMP280;10403;54.092;12.122;2024-01-11T12:36:29;103142.38;;;3.87
20490;BMP280;10403;54.092;12.122;2024-01-11T12:38:58;103138.00;;;3.86
20490;BMP280;10403;54.092;12.122;2024-01-11T12:41:25;103159.88;;;3.91
20490;BMP280;10403;54.092;12.122;2024-01-11T12:43:53;103162.47;;;3.91
20490;BMP280;10403;54.092;12.122;2024-01-11T12:46:20;103163.31;;;3.92
20490;BMP280;10403;54.092;12.122;2024-01-11T12:48:49;103172.72;;;3.90
20490;BMP280;10403;54.092;12.122;2024-01-11T12:51:18;103145.78;;;3.86
20490;BMP280;10403;54.092;12.122;2024-01-11T12:53:52;103137.69;;;3.80
20490;BMP280;10403;54.092;12.122;2024-01-11T12:56:20;103136.38;;;3.88
20490;BMP280;10403;54.092;12.122;2024-01-11T12:58:50;103127.66;;;3.86
20490;BMP280;10403;54.092;12.122;2024-01-11T13:01:18;103131.22;;;3.88
20490;BMP280;10403;54.092;12.122;2024-01-11T13:03:46;103142.94;;;3.98
20490;BMP280;10403;54.092;12.122;2024-01-11T13:06:15;103136.06;;;3.98
20490;BMP280;10403;54.092;12.122;2024-01-11T13:08:44;103138.81;;;4.01
20490;BMP280;10403;54.092;12.122;2024-01-11T13:11:12;103137.97;;;4.02
20490;BMP280;10403;54.092;12.122;2024-01-11T13:13:41;103141.31;;;4.00
20490;BMP280;10403;54.092;12.122;2024-01-11T13:16:08;103135.25;;;3.99
20490;BMP280;10403;54.092;12.122;2024-01-11T13:18:41;103126.50;;;3.97
20490;BMP280;10403;54.092;12.122;2024-01-11T13:21:09;103124.88;;;3.99
20490;BMP280;10403;54.092;12.122;2024-01-11T13:23:37;103136.94;;;3.99
20490;BMP280;10403;54.092;12.122;2024-01-11T13:26:07;103136.06;;;3.98
20490;BMP280;10403;54.092;12.122;2024-01-11T13:28:34;103134.28;;;3.97
20490;BMP280;10403;54.092;12.122;2024-01-11T13:31:02;103135.66;;;3.91
20490;BMP280;10403;54.092;12.122;2024-01-11T13:33:30;103142.28;;;3.86
20490;BMP280;10403;54.092;12.122;2024-01-11T13:35:58;103139.31;;;3.78
20490;BMP280;10403;54.092;12.122;2024-01-11T13:38:26;103150.47;;;3.77
20490;BMP280;10403;54.092;12.122;2024-01-11T13:40:53;103130.34;;;3.71
20490;BMP280;10403;54.092;12.122;2024-01-11T13:43:21;103131.38;;;3.75
20490;BMP280;10403;54.092;12.122;2024-01-11T13:45:48;103127.91;;;3.75
20490;BMP280;10403;54.092;12.122;2024-01-11T13:48:16;103141.00;;;3.78
20490;BMP280;10403;54.092;12.122;2024-01-11T13:50:44;103133.25;;;3.78
20490;BMP280;10403;54.092;12.122;2024-01-11T13:53:11;103139.47;;;3.81
20490;BMP280;10403;54.092;12.122;2024-01-11T13:55:38;103108.06;;;3.75
20490;BMP280;10403;54.092;12.122;2024-01-11T13:58:07;103115.34;;;3.82
20490;BMP280;10403;54.092;12.122;2024-01-11T14:00:35;103112.69;;;3.81
20490;BMP280;10403;54.092;12.122;2024-01-11T14:03:03;103119.72;;;3.83
20490;BMP280;10403;54.092;12.122;2024-01-11T14:05:33;103133.63;;;3.85